TNO1122 MRLB-MPTO
Flight info
| Callsign | TNO1122 |
|---|---|
| Flight time | 1h 36m |
| Altitude | 15000 |
| Route | BDT DCT PUDOS DCT TBG DCT LAMBI |
| Aircraft | AT75/M-SDFGIRY/S |
Departure
| Time | 2026-04-21 08:54 |
|---|---|
| Airport | Daniel Oduber Quirós International Airport (MRLB) |
Arrival
| Time | 2026-04-21 10:30 |
|---|---|
| Airport | Tocumen International Airport (MPTO) |
| Time | Latitude | Longitude | Altitude | Speed | Heading |
|---|---|---|---|---|---|
| 2026-04-21 08:30 | 10.59905 | -85.53946 | 276 ft | 0 kts | 70° |
| 2026-04-21 08:48 | 10.59905 | -85.53947 | 277 ft | 1 kts | 70° |
| 2026-04-21 08:49 | 10.59902 | -85.53958 | 277 ft | 2 kts | 90° |
| 2026-04-21 08:49 | 10.59911 | -85.53974 | 277 ft | 3 kts | 145° |
| 2026-04-21 08:49 | 10.59928 | -85.53982 | 277 ft | 0 kts | 160° |
| 2026-04-21 08:49 | 10.59913 | -85.53981 | 277 ft | 9 kts | 189° |
| 2026-04-21 08:50 | 10.59872 | -85.54016 | 277 ft | 19 kts | 223° |
| 2026-04-21 08:50 | 10.59781 | -85.54062 | 277 ft | 14 kts | 171° |
| 2026-04-21 08:50 | 10.59697 | -85.54034 | 277 ft | 14 kts | 160° |
| 2026-04-21 08:50 | 10.59586 | -85.53997 | 277 ft | 15 kts | 161° |
| 2026-04-21 08:51 | 10.59527 | -85.53935 | 277 ft | 14 kts | 83° |
| 2026-04-21 08:51 | 10.59559 | -85.53836 | 277 ft | 17 kts | 70° |
| 2026-04-21 08:51 | 10.59604 | -85.53718 | 277 ft | 14 kts | 64° |
| 2026-04-21 08:51 | 10.59680 | -85.53642 | 277 ft | 16 kts | 31° |
| 2026-04-21 08:52 | 10.59792 | -85.53576 | 277 ft | 21 kts | 30° |
| 2026-04-21 08:52 | 10.59877 | -85.53518 | 277 ft | 10 kts | 52° |
| 2026-04-21 08:52 | 10.59916 | -85.53423 | 277 ft | 16 kts | 71° |
| 2026-04-21 08:52 | 10.59902 | -85.53352 | 277 ft | 16 kts | 152° |
| 2026-04-21 08:53 | 10.59819 | -85.53321 | 277 ft | 7 kts | 160° |
| 2026-04-21 08:53 | 10.59767 | -85.53304 | 277 ft | 7 kts | 182° |
| 2026-04-21 08:53 | 10.59736 | -85.53342 | 277 ft | 24 kts | 252° |
| 2026-04-21 08:53 | 10.59508 | -85.53965 | 277 ft | 148 kts | 250° |
| 2026-04-21 08:54 | 10.59086 | -85.55121 | 420 ft | 192 kts | 248° |
| 2026-04-21 08:54 | 10.58463 | -85.56379 | 529 ft | 212 kts | 237° |
| 2026-04-21 08:54 | 10.57542 | -85.57590 | 813 ft | 221 kts | 226° |
| 2026-04-21 08:54 | 10.56272 | -85.58505 | 1055 ft | 225 kts | 202° |
| 2026-04-21 08:55 | 10.54752 | -85.58834 | 1306 ft | 224 kts | 179° |
| 2026-04-21 08:55 | 10.53248 | -85.58516 | 1594 ft | 220 kts | 154° |
| 2026-04-21 08:55 | 10.52049 | -85.57628 | 1893 ft | 216 kts | 131° |
| 2026-04-21 08:55 | 10.51318 | -85.56308 | 2195 ft | 215 kts | 108° |
| 2026-04-21 08:56 | 10.51049 | -85.54817 | 2506 ft | 215 kts | 96° |
| 2026-04-21 08:56 | 10.50962 | -85.53303 | 2806 ft | 215 kts | 92° |
| 2026-04-21 08:56 | 10.50939 | -85.51782 | 3106 ft | 215 kts | 91° |
| 2026-04-21 08:56 | 10.50935 | -85.50277 | 3404 ft | 214 kts | 90° |
| 2026-04-21 08:57 | 10.50936 | -85.48761 | 3705 ft | 214 kts | 90° |
| 2026-04-21 08:57 | 10.50937 | -85.47252 | 4004 ft | 213 kts | 90° |
| 2026-04-21 08:57 | 10.50937 | -85.46254 | 4204 ft | 212 kts | 90° |
| 2026-04-21 08:57 | 10.50935 | -85.44758 | 4502 ft | 211 kts | 90° |
| 2026-04-21 08:58 | 10.50930 | -85.42785 | 4900 ft | 210 kts | 90° |
| 2026-04-21 08:58 | 10.50926 | -85.41795 | 5097 ft | 211 kts | 90° |
| 2026-04-21 08:58 | 10.50918 | -85.40296 | 5397 ft | 212 kts | 89° |
| 2026-04-21 08:58 | 10.50909 | -85.38794 | 5695 ft | 212 kts | 89° |
| 2026-04-21 08:59 | 10.50897 | -85.37308 | 5994 ft | 212 kts | 89° |
| 2026-04-21 08:59 | 10.50867 | -85.35811 | 6293 ft | 212 kts | 91° |
| 2026-04-21 08:59 | 10.50758 | -85.34318 | 6589 ft | 211 kts | 94° |
| 2026-04-21 08:59 | 10.50545 | -85.32837 | 6890 ft | 211 kts | 98° |
| 2026-04-21 09:00 | 10.50241 | -85.31381 | 7188 ft | 210 kts | 101° |
| 2026-04-21 09:00 | 10.49865 | -85.29943 | 7488 ft | 210 kts | 103° |
| 2026-04-21 09:00 | 10.49446 | -85.28545 | 7784 ft | 209 kts | 105° |
| 2026-04-21 09:00 | 10.48987 | -85.27141 | 8082 ft | 209 kts | 105° |
| 2026-04-21 09:01 | 10.48503 | -85.25740 | 8381 ft | 209 kts | 107° |
| 2026-04-21 09:01 | 10.48005 | -85.24347 | 8683 ft | 209 kts | 107° |
| 2026-04-21 09:01 | 10.47500 | -85.22974 | 8985 ft | 210 kts | 107° |
| 2026-04-21 09:01 | 10.46988 | -85.21577 | 9289 ft | 212 kts | 107° |
| 2026-04-21 09:02 | 10.46465 | -85.20165 | 9590 ft | 213 kts | 107° |
| 2026-04-21 09:02 | 10.45936 | -85.18749 | 9885 ft | 214 kts | 108° |
| 2026-04-21 09:02 | 10.45407 | -85.17331 | 10177 ft | 214 kts | 108° |
| 2026-04-21 09:03 | 10.44350 | -85.14503 | 10781 ft | 217 kts | 108° |
| 2026-04-21 09:03 | 10.43803 | -85.13048 | 11087 ft | 222 kts | 108° |
| 2026-04-21 09:03 | 10.43247 | -85.11563 | 11391 ft | 226 kts | 108° |
| 2026-04-21 09:03 | 10.42680 | -85.10053 | 11695 ft | 230 kts | 109° |
| 2026-04-21 09:04 | 10.42106 | -85.08525 | 11998 ft | 233 kts | 109° |
| 2026-04-21 09:04 | 10.41532 | -85.06997 | 12297 ft | 235 kts | 109° |
| 2026-04-21 09:04 | 10.40946 | -85.05437 | 12599 ft | 237 kts | 109° |
| 2026-04-21 09:04 | 10.40351 | -85.03862 | 12902 ft | 239 kts | 109° |
| 2026-04-21 09:05 | 10.39755 | -85.02275 | 13204 ft | 240 kts | 109° |
| 2026-04-21 09:05 | 10.39159 | -85.00688 | 13503 ft | 240 kts | 109° |
| 2026-04-21 09:05 | 10.38566 | -84.99103 | 13805 ft | 240 kts | 109° |
| 2026-04-21 09:05 | 10.37965 | -84.97513 | 14107 ft | 241 kts | 109° |
| 2026-04-21 09:06 | 10.37369 | -84.95940 | 14405 ft | 241 kts | 109° |
| 2026-04-21 09:06 | 10.36766 | -84.94348 | 14705 ft | 241 kts | 109° |
| 2026-04-21 09:06 | 10.36159 | -84.92743 | 14905 ft | 245 kts | 109° |
| 2026-04-21 09:06 | 10.35538 | -84.91097 | 14988 ft | 253 kts | 109° |
| 2026-04-21 09:07 | 10.34897 | -84.89397 | 15005 ft | 261 kts | 109° |
| 2026-04-21 09:07 | 10.34251 | -84.87684 | 15008 ft | 263 kts | 109° |
| 2026-04-21 09:07 | 10.33596 | -84.85953 | 15010 ft | 263 kts | 109° |
| 2026-04-21 09:07 | 10.32940 | -84.84217 | 15038 ft | 261 kts | 109° |
| 2026-04-21 09:08 | 10.32286 | -84.82491 | 15055 ft | 261 kts | 109° |
| 2026-04-21 09:08 | 10.31634 | -84.80767 | 15061 ft | 261 kts | 109° |
| 2026-04-21 09:08 | 10.30981 | -84.79041 | 15065 ft | 262 kts | 109° |
| 2026-04-21 09:08 | 10.30337 | -84.77337 | 15068 ft | 262 kts | 109° |
| 2026-04-21 09:09 | 10.29685 | -84.75611 | 15070 ft | 261 kts | 109° |
| 2026-04-21 09:09 | 10.29031 | -84.73881 | 15073 ft | 262 kts | 109° |
| 2026-04-21 09:09 | 10.28381 | -84.72156 | 15075 ft | 262 kts | 109° |
| 2026-04-21 09:09 | 10.27728 | -84.70424 | 15078 ft | 262 kts | 109° |
| 2026-04-21 09:10 | 10.27073 | -84.68690 | 15080 ft | 262 kts | 109° |
| 2026-04-21 09:10 | 10.26428 | -84.66987 | 15082 ft | 261 kts | 109° |
| 2026-04-21 09:10 | 10.25777 | -84.65265 | 15083 ft | 261 kts | 109° |
| 2026-04-21 09:10 | 10.25125 | -84.63543 | 15085 ft | 260 kts | 109° |
| 2026-04-21 09:11 | 10.24477 | -84.61826 | 15087 ft | 260 kts | 109° |
| 2026-04-21 09:11 | 10.23829 | -84.60113 | 15089 ft | 259 kts | 109° |
| 2026-04-21 09:11 | 10.23181 | -84.58402 | 15091 ft | 259 kts | 109° |
| 2026-04-21 09:11 | 10.22542 | -84.56715 | 15092 ft | 259 kts | 109° |
| 2026-04-21 09:12 | 10.21894 | -84.55003 | 15094 ft | 259 kts | 109° |
| 2026-04-21 09:12 | 10.21249 | -84.53299 | 15064 ft | 260 kts | 109° |
| 2026-04-21 09:12 | 10.20597 | -84.51578 | 15017 ft | 261 kts | 109° |
| 2026-04-21 09:12 | 10.19951 | -84.49872 | 15005 ft | 261 kts | 109° |
| 2026-04-21 09:13 | 10.19296 | -84.48145 | 15004 ft | 260 kts | 109° |
| 2026-04-21 09:13 | 10.18644 | -84.46426 | 15004 ft | 260 kts | 109° |
| 2026-04-21 09:13 | 10.18001 | -84.44728 | 15005 ft | 260 kts | 109° |
| 2026-04-21 09:13 | 10.17350 | -84.43012 | 15006 ft | 259 kts | 109° |
| 2026-04-21 09:14 | 10.16702 | -84.41302 | 15006 ft | 259 kts | 109° |
| 2026-04-21 09:14 | 10.16052 | -84.39591 | 15007 ft | 259 kts | 109° |
| 2026-04-21 09:14 | 10.15413 | -84.37906 | 15008 ft | 259 kts | 109° |
| 2026-04-21 09:14 | 10.14763 | -84.36192 | 15009 ft | 259 kts | 109° |
| 2026-04-21 09:15 | 10.14113 | -84.34482 | 15009 ft | 258 kts | 109° |
| 2026-04-21 09:15 | 10.13467 | -84.32778 | 15009 ft | 258 kts | 109° |
| 2026-04-21 09:15 | 10.12832 | -84.31097 | 15010 ft | 258 kts | 109° |
| 2026-04-21 09:15 | 10.12186 | -84.29391 | 15011 ft | 258 kts | 109° |
| 2026-04-21 09:16 | 10.11539 | -84.27685 | 15011 ft | 258 kts | 109° |
| 2026-04-21 09:16 | 10.10892 | -84.25980 | 15011 ft | 258 kts | 109° |
| 2026-04-21 09:16 | 10.10254 | -84.24300 | 15011 ft | 258 kts | 109° |
| 2026-04-21 09:16 | 10.09607 | -84.22598 | 15011 ft | 258 kts | 109° |
| 2026-04-21 09:17 | 10.08959 | -84.20892 | 15011 ft | 258 kts | 109° |
| 2026-04-21 09:17 | 10.08313 | -84.19192 | 15009 ft | 258 kts | 109° |
| 2026-04-21 09:17 | 10.07666 | -84.17489 | 15009 ft | 258 kts | 109° |
| 2026-04-21 09:17 | 10.07018 | -84.15784 | 15008 ft | 258 kts | 109° |
| 2026-04-21 09:18 | 10.06372 | -84.14083 | 15008 ft | 258 kts | 109° |
| 2026-04-21 09:18 | 10.05731 | -84.12398 | 15009 ft | 258 kts | 109° |
| 2026-04-21 09:18 | 10.05081 | -84.10691 | 15005 ft | 258 kts | 109° |
| 2026-04-21 09:18 | 10.04435 | -84.08985 | 15000 ft | 258 kts | 109° |
| 2026-04-21 09:19 | 10.03793 | -84.07283 | 14999 ft | 258 kts | 109° |
| 2026-04-21 09:19 | 10.03146 | -84.05580 | 14999 ft | 258 kts | 109° |
| 2026-04-21 09:19 | 10.02503 | -84.03891 | 14998 ft | 258 kts | 109° |
| 2026-04-21 09:19 | 10.01852 | -84.02185 | 14998 ft | 258 kts | 109° |
| 2026-04-21 09:20 | 10.01205 | -84.00482 | 14997 ft | 258 kts | 109° |
| 2026-04-21 09:20 | 10.00562 | -83.98796 | 14996 ft | 258 kts | 109° |
| 2026-04-21 09:20 | 9.99915 | -83.97093 | 14995 ft | 258 kts | 109° |
| 2026-04-21 09:20 | 9.99270 | -83.95389 | 14997 ft | 258 kts | 109° |
| 2026-04-21 09:21 | 9.98626 | -83.93685 | 14997 ft | 258 kts | 109° |
| 2026-04-21 09:21 | 9.97990 | -83.92002 | 14996 ft | 258 kts | 109° |
| 2026-04-21 09:21 | 9.97344 | -83.90296 | 14994 ft | 258 kts | 109° |
| 2026-04-21 09:21 | 9.96697 | -83.88595 | 14993 ft | 258 kts | 109° |
| 2026-04-21 09:22 | 9.96048 | -83.86885 | 14992 ft | 258 kts | 109° |
| 2026-04-21 09:22 | 9.95403 | -83.85179 | 14990 ft | 258 kts | 110° |
| 2026-04-21 09:22 | 9.94768 | -83.83499 | 14990 ft | 258 kts | 109° |
| 2026-04-21 09:22 | 9.94124 | -83.81795 | 14988 ft | 259 kts | 109° |
| 2026-04-21 09:23 | 9.93472 | -83.80090 | 14987 ft | 259 kts | 110° |
| 2026-04-21 09:23 | 9.92821 | -83.78402 | 14985 ft | 259 kts | 110° |
| 2026-04-21 09:23 | 9.92166 | -83.76701 | 14983 ft | 259 kts | 110° |
| 2026-04-21 09:23 | 9.91508 | -83.74992 | 14981 ft | 259 kts | 110° |
| 2026-04-21 09:24 | 9.90850 | -83.73285 | 14979 ft | 259 kts | 110° |
| 2026-04-21 09:24 | 9.90201 | -83.71600 | 14991 ft | 258 kts | 110° |
| 2026-04-21 09:24 | 9.89547 | -83.69900 | 14993 ft | 258 kts | 109° |
| 2026-04-21 09:24 | 9.88894 | -83.68197 | 14993 ft | 259 kts | 109° |
| 2026-04-21 09:25 | 9.88248 | -83.66512 | 14990 ft | 259 kts | 109° |
| 2026-04-21 09:25 | 9.87595 | -83.64806 | 14987 ft | 259 kts | 109° |
| 2026-04-21 09:25 | 9.86939 | -83.63095 | 14982 ft | 259 kts | 109° |
| 2026-04-21 09:25 | 9.86285 | -83.61384 | 14980 ft | 259 kts | 109° |
| 2026-04-21 09:26 | 9.85641 | -83.59699 | 14975 ft | 259 kts | 109° |
| 2026-04-21 09:26 | 9.84986 | -83.57988 | 14968 ft | 260 kts | 110° |
| 2026-04-21 09:26 | 9.84330 | -83.56270 | 14935 ft | 261 kts | 110° |
| 2026-04-21 09:26 | 9.83671 | -83.54546 | 14920 ft | 261 kts | 110° |
| 2026-04-21 09:27 | 9.83013 | -83.52826 | 14914 ft | 261 kts | 110° |
| 2026-04-21 09:27 | 9.82364 | -83.51129 | 14910 ft | 261 kts | 110° |
| 2026-04-21 09:27 | 9.81708 | -83.49415 | 14907 ft | 261 kts | 110° |
| 2026-04-21 09:27 | 9.81051 | -83.47699 | 14905 ft | 261 kts | 110° |
| 2026-04-21 09:28 | 9.80394 | -83.45983 | 14901 ft | 261 kts | 109° |
| 2026-04-21 09:28 | 9.79734 | -83.44261 | 14899 ft | 261 kts | 109° |
| 2026-04-21 09:28 | 9.79078 | -83.42546 | 14898 ft | 261 kts | 110° |
| 2026-04-21 09:28 | 9.78420 | -83.40828 | 14894 ft | 261 kts | 109° |
| 2026-04-21 09:29 | 9.77770 | -83.39133 | 14893 ft | 261 kts | 109° |
| 2026-04-21 09:29 | 9.77114 | -83.37420 | 14892 ft | 261 kts | 109° |
| 2026-04-21 09:29 | 9.76456 | -83.35702 | 14890 ft | 261 kts | 109° |
| 2026-04-21 09:29 | 9.75800 | -83.33989 | 14889 ft | 261 kts | 109° |
| 2026-04-21 09:30 | 9.75142 | -83.32274 | 14887 ft | 261 kts | 109° |
| 2026-04-21 09:30 | 9.74486 | -83.30562 | 14886 ft | 261 kts | 109° |
| 2026-04-21 09:30 | 9.73828 | -83.28848 | 14886 ft | 260 kts | 109° |
| 2026-04-21 09:30 | 9.73171 | -83.27136 | 14882 ft | 261 kts | 109° |
| 2026-04-21 09:31 | 9.72521 | -83.25439 | 14881 ft | 261 kts | 109° |
| 2026-04-21 09:31 | 9.71861 | -83.23718 | 14882 ft | 261 kts | 109° |
| 2026-04-21 09:31 | 9.71203 | -83.22001 | 14882 ft | 260 kts | 109° |
| 2026-04-21 09:31 | 9.70546 | -83.20288 | 14882 ft | 260 kts | 109° |
| 2026-04-21 09:32 | 9.69897 | -83.18596 | 14882 ft | 260 kts | 109° |
| 2026-04-21 09:32 | 9.69239 | -83.16880 | 14881 ft | 260 kts | 109° |
| 2026-04-21 09:32 | 9.68582 | -83.15168 | 14881 ft | 260 kts | 109° |
| 2026-04-21 09:32 | 9.67920 | -83.13451 | 14882 ft | 260 kts | 110° |
| 2026-04-21 09:33 | 9.67271 | -83.11763 | 14881 ft | 260 kts | 109° |
| 2026-04-21 09:33 | 9.66612 | -83.10048 | 14880 ft | 260 kts | 109° |
| 2026-04-21 09:33 | 9.65954 | -83.08334 | 14880 ft | 260 kts | 109° |
| 2026-04-21 09:33 | 9.65298 | -83.06621 | 14880 ft | 260 kts | 109° |
| 2026-04-21 09:34 | 9.64643 | -83.04909 | 14880 ft | 260 kts | 109° |
| 2026-04-21 09:34 | 9.63994 | -83.03219 | 14880 ft | 260 kts | 109° |
| 2026-04-21 09:34 | 9.63336 | -83.01509 | 14877 ft | 260 kts | 109° |
| 2026-04-21 09:34 | 9.62677 | -82.99795 | 14875 ft | 260 kts | 109° |
| 2026-04-21 09:35 | 9.62019 | -82.98084 | 14874 ft | 260 kts | 109° |
| 2026-04-21 09:35 | 9.61359 | -82.96369 | 14874 ft | 260 kts | 109° |
| 2026-04-21 09:35 | 9.60707 | -82.94677 | 14874 ft | 260 kts | 109° |
| 2026-04-21 09:35 | 9.60049 | -82.92965 | 14874 ft | 260 kts | 109° |
| 2026-04-21 09:36 | 9.59390 | -82.91254 | 14874 ft | 260 kts | 109° |
| 2026-04-21 09:36 | 9.58734 | -82.89544 | 14874 ft | 260 kts | 110° |
| 2026-04-21 09:36 | 9.58077 | -82.87834 | 14873 ft | 260 kts | 110° |
| 2026-04-21 09:36 | 9.57418 | -82.86122 | 14873 ft | 260 kts | 110° |
| 2026-04-21 09:37 | 9.56759 | -82.84412 | 14873 ft | 260 kts | 110° |
| 2026-04-21 09:37 | 9.56108 | -82.82724 | 14873 ft | 260 kts | 110° |
| 2026-04-21 09:37 | 9.55447 | -82.81012 | 14873 ft | 260 kts | 110° |
| 2026-04-21 09:37 | 9.54789 | -82.79305 | 14872 ft | 260 kts | 110° |
| 2026-04-21 09:38 | 9.54131 | -82.77597 | 14872 ft | 260 kts | 110° |
| 2026-04-21 09:38 | 9.53472 | -82.75889 | 14872 ft | 260 kts | 110° |
| 2026-04-21 09:38 | 9.52815 | -82.74183 | 14871 ft | 260 kts | 110° |
| 2026-04-21 09:38 | 9.52164 | -82.72494 | 14872 ft | 260 kts | 110° |
| 2026-04-21 09:39 | 9.51507 | -82.70790 | 14870 ft | 260 kts | 110° |
| 2026-04-21 09:39 | 9.50848 | -82.69082 | 14870 ft | 260 kts | 110° |
| 2026-04-21 09:39 | 9.50188 | -82.67372 | 14868 ft | 260 kts | 109° |
| 2026-04-21 09:39 | 9.49528 | -82.65661 | 14866 ft | 260 kts | 109° |
| 2026-04-21 09:40 | 9.48870 | -82.63957 | 14866 ft | 260 kts | 109° |
| 2026-04-21 09:40 | 9.48220 | -82.62269 | 14866 ft | 260 kts | 109° |
| 2026-04-21 09:40 | 9.47559 | -82.60557 | 14863 ft | 259 kts | 109° |
| 2026-04-21 09:40 | 9.46901 | -82.58852 | 14865 ft | 259 kts | 109° |
| 2026-04-21 09:41 | 9.46256 | -82.57181 | 14864 ft | 259 kts | 109° |
| 2026-04-21 09:41 | 9.45593 | -82.55463 | 14863 ft | 259 kts | 109° |
| 2026-04-21 09:41 | 9.44936 | -82.53759 | 14863 ft | 259 kts | 109° |
| 2026-04-21 09:41 | 9.44277 | -82.52055 | 14862 ft | 260 kts | 109° |
| 2026-04-21 09:42 | 9.43619 | -82.50350 | 14865 ft | 259 kts | 110° |
| 2026-04-21 09:42 | 9.43183 | -82.49222 | 14865 ft | 259 kts | 109° |
| 2026-04-21 09:42 | 9.42310 | -82.46963 | 14861 ft | 259 kts | 109° |
| 2026-04-21 09:42 | 9.41650 | -82.45254 | 14860 ft | 260 kts | 109° |
| 2026-04-21 09:43 | 9.40991 | -82.43549 | 14860 ft | 260 kts | 109° |
| 2026-04-21 09:43 | 9.40551 | -82.42412 | 14859 ft | 260 kts | 109° |
| 2026-04-21 09:43 | 9.39678 | -82.40153 | 14859 ft | 260 kts | 109° |
| 2026-04-21 09:43 | 9.39240 | -82.39020 | 14857 ft | 260 kts | 110° |
| 2026-04-21 09:44 | 9.38581 | -82.37315 | 14858 ft | 260 kts | 109° |
| 2026-04-21 09:44 | 9.37920 | -82.35608 | 14857 ft | 260 kts | 109° |
| 2026-04-21 09:44 | 9.37263 | -82.33909 | 14857 ft | 260 kts | 109° |
| 2026-04-21 09:44 | 9.36608 | -82.32217 | 14856 ft | 260 kts | 109° |
| 2026-04-21 09:45 | 9.35948 | -82.30511 | 14856 ft | 260 kts | 109° |
| 2026-04-21 09:45 | 9.35287 | -82.28803 | 14855 ft | 260 kts | 109° |
| 2026-04-21 09:45 | 9.34658 | -82.27088 | 14855 ft | 259 kts | 107° |
| 2026-04-21 09:45 | 9.34125 | -82.25339 | 14855 ft | 259 kts | 104° |
| 2026-04-21 09:46 | 9.33662 | -82.23596 | 14854 ft | 259 kts | 103° |
| 2026-04-21 09:46 | 9.33234 | -82.21821 | 14854 ft | 259 kts | 102° |
| 2026-04-21 09:46 | 9.32829 | -82.20043 | 14854 ft | 259 kts | 101° |
| 2026-04-21 09:46 | 9.32439 | -82.18259 | 14853 ft | 259 kts | 101° |
| 2026-04-21 09:47 | 9.32061 | -82.16498 | 14852 ft | 259 kts | 101° |
| 2026-04-21 09:47 | 9.31682 | -82.14715 | 14853 ft | 259 kts | 101° |
| 2026-04-21 09:47 | 9.31306 | -82.12932 | 14853 ft | 259 kts | 101° |
| 2026-04-21 09:47 | 9.30931 | -82.11147 | 14852 ft | 259 kts | 101° |
| 2026-04-21 09:48 | 9.30556 | -82.09364 | 14852 ft | 259 kts | 101° |
| 2026-04-21 09:48 | 9.30181 | -82.07580 | 14853 ft | 258 kts | 101° |
| 2026-04-21 09:48 | 9.29806 | -82.05796 | 14852 ft | 259 kts | 101° |
| 2026-04-21 09:48 | 9.29432 | -82.04014 | 14851 ft | 259 kts | 100° |
| 2026-04-21 09:49 | 9.29064 | -82.02247 | 14852 ft | 259 kts | 100° |
| 2026-04-21 09:49 | 9.28689 | -82.00461 | 14851 ft | 259 kts | 101° |
| 2026-04-21 09:49 | 9.28312 | -81.98677 | 14851 ft | 259 kts | 101° |
| 2026-04-21 09:49 | 9.27935 | -81.96890 | 14851 ft | 259 kts | 101° |
| 2026-04-21 09:50 | 9.27560 | -81.95127 | 14851 ft | 259 kts | 101° |
| 2026-04-21 09:50 | 9.27181 | -81.93343 | 14851 ft | 259 kts | 101° |
| 2026-04-21 09:50 | 9.26803 | -81.91561 | 14850 ft | 258 kts | 101° |
| 2026-04-21 09:50 | 9.26424 | -81.89780 | 14851 ft | 259 kts | 101° |
| 2026-04-21 09:51 | 9.26047 | -81.87995 | 14851 ft | 259 kts | 101° |
| 2026-04-21 09:51 | 9.25676 | -81.86233 | 14851 ft | 259 kts | 101° |
| 2026-04-21 09:51 | 9.25328 | -81.84579 | 14850 ft | 259 kts | 101° |
| 2026-04-21 09:51 | 9.25014 | -81.83101 | 14851 ft | 259 kts | 101° |
| 2026-04-21 09:52 | 9.24636 | -81.81311 | 14851 ft | 259 kts | 101° |
| 2026-04-21 09:52 | 9.24264 | -81.79544 | 14851 ft | 259 kts | 101° |
| 2026-04-21 09:52 | 9.23887 | -81.77759 | 14850 ft | 259 kts | 101° |
| 2026-04-21 09:52 | 9.23510 | -81.75968 | 14850 ft | 260 kts | 101° |
| 2026-04-21 09:53 | 9.23131 | -81.74173 | 14849 ft | 260 kts | 101° |
| 2026-04-21 09:53 | 9.22753 | -81.72387 | 14851 ft | 259 kts | 101° |
| 2026-04-21 09:53 | 9.22377 | -81.70615 | 14851 ft | 259 kts | 101° |
| 2026-04-21 09:53 | 9.21995 | -81.68823 | 14851 ft | 260 kts | 101° |
| 2026-04-21 09:54 | 9.21620 | -81.67051 | 14851 ft | 260 kts | 101° |
| 2026-04-21 09:54 | 9.21242 | -81.65265 | 14851 ft | 260 kts | 101° |
| 2026-04-21 09:54 | 9.20858 | -81.63470 | 14851 ft | 260 kts | 101° |
| 2026-04-21 09:54 | 9.20473 | -81.61674 | 14851 ft | 260 kts | 101° |
| 2026-04-21 09:55 | 9.20098 | -81.59903 | 14851 ft | 260 kts | 101° |
| 2026-04-21 09:55 | 9.19720 | -81.58109 | 14851 ft | 260 kts | 101° |
| 2026-04-21 09:55 | 9.19343 | -81.56321 | 14851 ft | 260 kts | 101° |
| 2026-04-21 09:55 | 9.18965 | -81.54530 | 14850 ft | 260 kts | 101° |
| 2026-04-21 09:56 | 9.18582 | -81.52743 | 14852 ft | 260 kts | 101° |
| 2026-04-21 09:56 | 9.18207 | -81.50978 | 14852 ft | 260 kts | 101° |
| 2026-04-21 09:56 | 9.17829 | -81.49186 | 14852 ft | 260 kts | 101° |
| 2026-04-21 09:56 | 9.17449 | -81.47402 | 14853 ft | 260 kts | 101° |
| 2026-04-21 09:57 | 9.17070 | -81.45614 | 14852 ft | 260 kts | 101° |
| 2026-04-21 09:57 | 9.16692 | -81.43827 | 14852 ft | 260 kts | 101° |
| 2026-04-21 09:57 | 9.16313 | -81.42034 | 14852 ft | 260 kts | 101° |
| 2026-04-21 09:57 | 9.15935 | -81.40245 | 14852 ft | 260 kts | 101° |
| 2026-04-21 09:58 | 9.15556 | -81.38457 | 14852 ft | 260 kts | 101° |
| 2026-04-21 09:58 | 9.15177 | -81.36670 | 14852 ft | 260 kts | 101° |
| 2026-04-21 09:58 | 9.14803 | -81.34904 | 14852 ft | 260 kts | 101° |
| 2026-04-21 09:58 | 9.14418 | -81.33089 | 14853 ft | 260 kts | 101° |
| 2026-04-21 09:59 | 9.14041 | -81.31319 | 14850 ft | 260 kts | 101° |
| 2026-04-21 09:59 | 9.13658 | -81.29531 | 14850 ft | 260 kts | 101° |
| 2026-04-21 09:59 | 9.13276 | -81.27738 | 14849 ft | 260 kts | 101° |
| 2026-04-21 09:59 | 9.12894 | -81.25944 | 14849 ft | 261 kts | 101° |
| 2026-04-21 10:00 | 9.12513 | -81.24149 | 14849 ft | 261 kts | 101° |
| 2026-04-21 10:00 | 9.12133 | -81.22351 | 14850 ft | 261 kts | 101° |
| 2026-04-21 10:00 | 9.11755 | -81.20573 | 14850 ft | 261 kts | 101° |
| 2026-04-21 10:00 | 9.11371 | -81.18776 | 14850 ft | 261 kts | 101° |
| 2026-04-21 10:01 | 9.10988 | -81.16979 | 14850 ft | 261 kts | 101° |
| 2026-04-21 10:01 | 9.10605 | -81.15186 | 14850 ft | 261 kts | 101° |
| 2026-04-21 10:01 | 9.10221 | -81.13388 | 14850 ft | 261 kts | 101° |
| 2026-04-21 10:01 | 9.09837 | -81.11594 | 14850 ft | 261 kts | 101° |
| 2026-04-21 10:02 | 9.09071 | -81.08006 | 14850 ft | 261 kts | 101° |
| 2026-04-21 10:02 | 9.08695 | -81.06212 | 14852 ft | 261 kts | 101° |
| 2026-04-21 10:02 | 9.08327 | -81.04417 | 14851 ft | 261 kts | 100° |
| 2026-04-21 10:03 | 9.07965 | -81.02620 | 14849 ft | 261 kts | 100° |
| 2026-04-21 10:03 | 9.07606 | -81.00823 | 14852 ft | 261 kts | 100° |
| 2026-04-21 10:03 | 9.07248 | -80.99025 | 14851 ft | 261 kts | 100° |
| 2026-04-21 10:03 | 9.06892 | -80.97226 | 14852 ft | 261 kts | 100° |
| 2026-04-21 10:04 | 9.06536 | -80.95426 | 14851 ft | 261 kts | 100° |
| 2026-04-21 10:04 | 9.06181 | -80.93626 | 14852 ft | 261 kts | 100° |
| 2026-04-21 10:04 | 9.05825 | -80.91823 | 14852 ft | 261 kts | 100° |
| 2026-04-21 10:04 | 9.05469 | -80.90024 | 14853 ft | 261 kts | 100° |
| 2026-04-21 10:05 | 9.05118 | -80.88248 | 14854 ft | 261 kts | 100° |
| 2026-04-21 10:05 | 9.04761 | -80.86445 | 14855 ft | 261 kts | 100° |
| 2026-04-21 10:05 | 9.04405 | -80.84648 | 14858 ft | 261 kts | 100° |
| 2026-04-21 10:05 | 9.04049 | -80.82850 | 14861 ft | 261 kts | 100° |
| 2026-04-21 10:06 | 9.03693 | -80.81051 | 14873 ft | 260 kts | 100° |
| 2026-04-21 10:06 | 9.03337 | -80.79252 | 14875 ft | 261 kts | 100° |
| 2026-04-21 10:06 | 9.02981 | -80.77455 | 14877 ft | 261 kts | 100° |
| 2026-04-21 10:06 | 9.02624 | -80.75652 | 14877 ft | 261 kts | 100° |
| 2026-04-21 10:07 | 9.02267 | -80.73851 | 14877 ft | 261 kts | 100° |
| 2026-04-21 10:07 | 9.01910 | -80.72051 | 14878 ft | 261 kts | 100° |
| 2026-04-21 10:07 | 9.01553 | -80.70248 | 14878 ft | 261 kts | 100° |
| 2026-04-21 10:07 | 9.01196 | -80.68446 | 14878 ft | 261 kts | 100° |
| 2026-04-21 10:08 | 9.00838 | -80.66642 | 14879 ft | 261 kts | 100° |
| 2026-04-21 10:08 | 9.00481 | -80.64840 | 14880 ft | 261 kts | 100° |
| 2026-04-21 10:08 | 9.00123 | -80.63038 | 14880 ft | 261 kts | 100° |
| 2026-04-21 10:08 | 8.99769 | -80.61254 | 14880 ft | 261 kts | 100° |
| 2026-04-21 10:09 | 8.99409 | -80.59440 | 14880 ft | 261 kts | 100° |
| 2026-04-21 10:09 | 8.99049 | -80.57628 | 14881 ft | 261 kts | 100° |
| 2026-04-21 10:09 | 8.98696 | -80.55849 | 14881 ft | 261 kts | 100° |
| 2026-04-21 10:09 | 8.98337 | -80.54043 | 14881 ft | 261 kts | 100° |
| 2026-04-21 10:10 | 8.97977 | -80.52233 | 14878 ft | 261 kts | 100° |
| 2026-04-21 10:10 | 8.97618 | -80.50429 | 14879 ft | 261 kts | 100° |
| 2026-04-21 10:10 | 8.97260 | -80.48626 | 14879 ft | 262 kts | 100° |
| 2026-04-21 10:10 | 8.97057 | -80.47606 | 14879 ft | 262 kts | 100° |
| 2026-04-21 10:11 | 8.96698 | -80.45803 | 14818 ft | 260 kts | 100° |
| 2026-04-21 10:11 | 8.96339 | -80.43999 | 14649 ft | 261 kts | 100° |
| 2026-04-21 10:11 | 8.95981 | -80.42202 | 14474 ft | 260 kts | 100° |
| 2026-04-21 10:11 | 8.95623 | -80.40405 | 14299 ft | 260 kts | 100° |
| 2026-04-21 10:12 | 8.95266 | -80.38615 | 14123 ft | 260 kts | 100° |
| 2026-04-21 10:12 | 8.94909 | -80.36822 | 13949 ft | 259 kts | 100° |
| 2026-04-21 10:12 | 8.94552 | -80.35033 | 13774 ft | 259 kts | 100° |
| 2026-04-21 10:12 | 8.94197 | -80.33246 | 13599 ft | 259 kts | 100° |
| 2026-04-21 10:13 | 8.93846 | -80.31482 | 13426 ft | 259 kts | 100° |
| 2026-04-21 10:13 | 8.93490 | -80.29695 | 13251 ft | 259 kts | 100° |
| 2026-04-21 10:13 | 8.93133 | -80.27904 | 13076 ft | 259 kts | 100° |
| 2026-04-21 10:13 | 8.92776 | -80.26116 | 12901 ft | 259 kts | 100° |
| 2026-04-21 10:14 | 8.92419 | -80.24325 | 12726 ft | 260 kts | 100° |
| 2026-04-21 10:14 | 8.92062 | -80.22536 | 12551 ft | 260 kts | 100° |
| 2026-04-21 10:14 | 8.91704 | -80.20746 | 12376 ft | 259 kts | 100° |
| 2026-04-21 10:14 | 8.91347 | -80.18959 | 12201 ft | 259 kts | 100° |
| 2026-04-21 10:15 | 8.90990 | -80.17173 | 12026 ft | 259 kts | 100° |
| 2026-04-21 10:15 | 8.90633 | -80.15388 | 11850 ft | 259 kts | 100° |
| 2026-04-21 10:15 | 8.90276 | -80.13606 | 11675 ft | 259 kts | 100° |
| 2026-04-21 10:15 | 8.89920 | -80.11823 | 11500 ft | 258 kts | 100° |
| 2026-04-21 10:16 | 8.89562 | -80.10042 | 11321 ft | 258 kts | 100° |
| 2026-04-21 10:16 | 8.89210 | -80.08284 | 11150 ft | 258 kts | 100° |
| 2026-04-21 10:16 | 8.88854 | -80.06504 | 10974 ft | 258 kts | 100° |
| 2026-04-21 10:16 | 8.88499 | -80.04727 | 10799 ft | 258 kts | 100° |
| 2026-04-21 10:17 | 8.88142 | -80.02946 | 10624 ft | 258 kts | 99° |
| 2026-04-21 10:17 | 8.87766 | -80.01156 | 10442 ft | 260 kts | 100° |
| 2026-04-21 10:17 | 8.87407 | -79.99366 | 10267 ft | 260 kts | 99° |
| 2026-04-21 10:17 | 8.87051 | -79.97576 | 10094 ft | 259 kts | 100° |
| 2026-04-21 10:18 | 8.86690 | -79.95790 | 9920 ft | 259 kts | 100° |
| 2026-04-21 10:18 | 8.86335 | -79.94005 | 9742 ft | 259 kts | 99° |
| 2026-04-21 10:18 | 8.85993 | -79.92240 | 9525 ft | 257 kts | 98° |
| 2026-04-21 10:18 | 8.85645 | -79.90466 | 9405 ft | 258 kts | 100° |
| 2026-04-21 10:19 | 8.85306 | -79.88697 | 9233 ft | 253 kts | 98° |
| 2026-04-21 10:19 | 8.84989 | -79.86949 | 9076 ft | 253 kts | 97° |
| 2026-04-21 10:19 | 8.84593 | -79.85219 | 8916 ft | 253 kts | 103° |
| 2026-04-21 10:19 | 8.84180 | -79.83476 | 8737 ft | 255 kts | 101° |
| 2026-04-21 10:20 | 8.83866 | -79.81708 | 8550 ft | 255 kts | 97° |
| 2026-04-21 10:20 | 8.83561 | -79.79939 | 8381 ft | 256 kts | 98° |
| 2026-04-21 10:20 | 8.83222 | -79.78167 | 8206 ft | 256 kts | 99° |
| 2026-04-21 10:20 | 8.82868 | -79.76415 | 8029 ft | 253 kts | 99° |
| 2026-04-21 10:21 | 8.82509 | -79.74693 | 7827 ft | 250 kts | 99° |
| 2026-04-21 10:21 | 8.82176 | -79.72958 | 7429 ft | 252 kts | 99° |
| 2026-04-21 10:21 | 8.81817 | -79.71233 | 7037 ft | 253 kts | 99° |
| 2026-04-21 10:21 | 8.81442 | -79.69513 | 6634 ft | 249 kts | 100° |
| 2026-04-21 10:22 | 8.81059 | -79.67808 | 6230 ft | 245 kts | 100° |
| 2026-04-21 10:22 | 8.80679 | -79.66131 | 5828 ft | 243 kts | 101° |
| 2026-04-21 10:22 | 8.80303 | -79.64482 | 5430 ft | 242 kts | 101° |
| 2026-04-21 10:22 | 8.79927 | -79.62833 | 5131 ft | 236 kts | 101° |
| 2026-04-21 10:23 | 8.79561 | -79.61251 | 5030 ft | 224 kts | 101° |
| 2026-04-21 10:23 | 8.79208 | -79.59723 | 5004 ft | 221 kts | 101° |
| 2026-04-21 10:23 | 8.78863 | -79.58241 | 4999 ft | 217 kts | 101° |
| 2026-04-21 10:23 | 8.78580 | -79.56753 | 4990 ft | 212 kts | 91° |
| 2026-04-21 10:24 | 8.78815 | -79.55310 | 5000 ft | 208 kts | 67° |
| 2026-04-21 10:24 | 8.79511 | -79.54024 | 5004 ft | 207 kts | 53° |
| 2026-04-21 10:24 | 8.80435 | -79.52929 | 5004 ft | 208 kts | 43° |
| 2026-04-21 10:24 | 8.81552 | -79.51978 | 5004 ft | 212 kts | 35° |
| 2026-04-21 10:25 | 8.82817 | -79.51182 | 4967 ft | 217 kts | 28° |
| 2026-04-21 10:25 | 8.84210 | -79.50516 | 4822 ft | 226 kts | 22° |
| 2026-04-21 10:25 | 8.85711 | -79.49921 | 4579 ft | 235 kts | 20° |
| 2026-04-21 10:25 | 8.87250 | -79.49336 | 4278 ft | 230 kts | 21° |
| 2026-04-21 10:26 | 8.88531 | -79.48778 | 4186 ft | 184 kts | 24° |
| 2026-04-21 10:26 | 8.89664 | -79.48174 | 3870 ft | 185 kts | 28° |
| 2026-04-21 10:26 | 8.90772 | -79.47483 | 3497 ft | 188 kts | 32° |
| 2026-04-21 10:26 | 8.91868 | -79.46744 | 3131 ft | 189 kts | 33° |
| 2026-04-21 10:27 | 8.92962 | -79.46009 | 2802 ft | 187 kts | 32° |
| 2026-04-21 10:27 | 8.94057 | -79.45324 | 2517 ft | 186 kts | 30° |
| 2026-04-21 10:27 | 8.95184 | -79.44685 | 2264 ft | 185 kts | 27° |
| 2026-04-21 10:27 | 8.96323 | -79.44082 | 2028 ft | 184 kts | 26° |
| 2026-04-21 10:28 | 8.97442 | -79.43494 | 1864 ft | 164 kts | 27° |
| 2026-04-21 10:28 | 8.98055 | -79.43158 | 1778 ft | 145 kts | 28° |
| 2026-04-21 10:28 | 8.98958 | -79.42641 | 1504 ft | 144 kts | 29° |
| 2026-04-21 10:28 | 8.99486 | -79.42334 | 1357 ft | 146 kts | 29° |
| 2026-04-21 10:29 | 9.00366 | -79.41828 | 1153 ft | 145 kts | 30° |
| 2026-04-21 10:29 | 9.01242 | -79.41326 | 961 ft | 144 kts | 29° |
| 2026-04-21 10:29 | 9.02123 | -79.40832 | 775 ft | 145 kts | 29° |
| 2026-04-21 10:29 | 9.02998 | -79.40330 | 610 ft | 145 kts | 31° |
| 2026-04-21 10:30 | 9.03866 | -79.39816 | 438 ft | 144 kts | 30° |
| 2026-04-21 10:30 | 9.04748 | -79.39317 | 214 ft | 145 kts | 29° |
| 2026-04-21 10:30 | 9.05554 | -79.38854 | 145 ft | 116 kts | 28° |
| 2026-04-21 10:30 | 9.06088 | -79.38558 | 143 ft | 44 kts | 31° |
| 2026-04-21 10:31 | 9.06196 | -79.38496 | 143 ft | 20 kts | 29° |
| 2026-04-21 10:31 | 9.06286 | -79.38443 | 143 ft | 9 kts | 29° |
| 2026-04-21 10:31 | 9.06312 | -79.38429 | 143 ft | 0 kts | 28° |
| 2026-04-21 10:32 | 9.06336 | -79.38415 | 143 ft | 20 kts | 28° |
| 2026-04-21 10:33 | 9.06463 | -79.38372 | 143 ft | 18 kts | 12° |
| 2026-04-21 10:33 | 9.06602 | -79.38363 | 143 ft | 19 kts | 359° |
| 2026-04-21 10:33 | 9.06720 | -79.38364 | 143 ft | 16 kts | 355° |
| 2026-04-21 10:33 | 9.06787 | -79.38413 | 143 ft | 12 kts | 287° |
| 2026-04-21 10:34 | 9.06807 | -79.38503 | 143 ft | 13 kts | 294° |
| 2026-04-21 10:34 | 9.06834 | -79.38557 | 143 ft | 0 kts | 299° |